Time;durP1;ratioP1;P1;durP2;ratioP2;P2;SDS_P1;SDS_P2;PMS_P1;PMS_P2;Temp;Humidity;BMP_temperature;BMP_pressure;BME280_temperature;BME280_humidity;BME280_pressure;Samples;Min_cycle;Max_cycle;Signal;HPM_P1;HPM_P2
2021/04/22 00:02:11;;;;;;;1999.90;999.90;;;17.50;93.30;;;;;;5113863;28;20559;-48
2021/04/22 00:04:38;;;;;;;1999.90;999.90;;;17.40;93.30;;;;;;5113881;28;20210;-48
2021/04/22 00:07:06;;;;;;;1999.90;999.90;;;17.30;93.50;;;;;;5113925;28;20163;-49
2021/04/22 00:09:33;;;;;;;1999.90;999.90;;;17.30;93.60;;;;;;5113773;28;20171;-48
2021/04/22 00:12:00;;;;;;;1999.90;999.90;;;17.10;93.60;;;;;;5113824;28;20175;-49
2021/04/22 00:14:26;;;;;;;1999.90;999.90;;;17.20;93.70;;;;;;5113894;28;20549;-48
2021/04/22 00:16:53;;;;;;;1999.90;999.90;;;17.10;93.70;;;;;;5113703;28;20630;-49
2021/04/22 00:19:20;;;;;;;1999.90;999.90;;;17.00;93.70;;;;;;5113472;28;20174;-47
2021/04/22 00:21:47;;;;;;;1999.90;999.90;;;17.00;93.80;;;;;;5113408;28;20233;-47
2021/04/22 00:24:14;;;;;;;1999.90;999.90;;;16.80;93.90;;;;;;5113589;28;20174;-47
2021/04/22 00:26:41;;;;;;;1999.90;999.90;;;16.80;94.10;;;;;;5113576;28;20530;-46
2021/04/22 00:29:08;;;;;;;1999.90;999.90;;;16.70;94.20;;;;;;5113577;28;20163;-48
2021/04/22 00:31:35;;;;;;;1999.90;999.90;;;16.60;94.50;;;;;;5113448;28;20262;-46
2021/04/22 00:34:01;;;;;;;1999.90;999.90;;;16.60;94.40;;;;;;5113545;28;20630;-50
2021/04/22 00:36:28;;;;;;;1999.90;999.90;;;16.60;94.40;;;;;;5113542;28;20214;-47
2021/04/22 00:38:55;;;;;;;1999.90;999.90;;;16.50;94.50;;;;;;5113337;28;20731;-46
2021/04/22 00:41:22;;;;;;;1999.90;999.90;;;16.50;94.70;;;;;;5113409;28;20174;-46
2021/04/22 00:43:53;;;;;;;1999.90;999.90;;;16.50;94.90;;;;;;5113315;28;20207;-47
2021/04/22 00:46:20;;;;;;;1999.90;999.90;;;16.40;95.20;;;;;;5113273;28;20262;-50
2021/04/22 00:48:47;;;;;;;1999.90;999.90;;;16.30;95.40;;;;;;5113613;28;20527;-48
2021/04/22 00:51:14;;;;;;;1999.90;999.90;;;16.30;95.40;;;;;;5113215;28;20167;-49
2021/04/22 00:53:41;;;;;;;1999.90;999.90;;;16.40;95.20;;;;;;5113331;28;20228;-49
2021/04/22 00:56:08;;;;;;;1999.90;999.90;;;16.40;95.10;;;;;;5113253;28;20159;-46
2021/04/22 00:58:39;;;;;;;1999.90;999.90;;;16.30;95.10;;;;;;5113188;28;20169;-47
2021/04/22 01:01:06;;;;;;;1999.90;999.90;;;16.30;95.20;;;;;;5113173;28;20259;-48
2021/04/22 01:03:33;;;;;;;1999.90;999.90;;;16.20;95.10;;;;;;5113370;28;20195;-46
2021/04/22 01:06:03;;;;;;;1999.90;999.90;;;16.20;95.40;;;;;;5113536;28;20159;-48
2021/04/22 01:08:31;;;;;;;1999.90;999.90;;;16.20;95.20;;;;;;5113175;28;20181;-49
2021/04/22 01:10:58;;;;;;;1999.90;999.90;;;16.10;95.50;;;;;;5113247;28;20183;-48
2021/04/22 01:13:25;;;;;;;1999.90;999.90;;;16.20;95.50;;;;;;5113024;28;20633;-47
2021/04/22 01:15:52;;;;;;;1999.90;999.90;;;16.20;95.50;;;;;;5113233;28;20213;-49
2021/04/22 01:18:19;;;;;;;1999.90;999.90;;;16.20;95.90;;;;;;5113090;28;20178;-50
2021/04/22 01:20:50;;;;;;;1999.90;999.90;;;16.10;95.50;;;;;;5111592;28;20219;-50
2021/04/22 01:23:17;;;;;;;1999.90;999.90;;;16.20;95.40;;;;;;5113039;28;20199;-49
2021/04/22 01:25:50;;;;;;;1999.90;999.90;;;16.20;95.30;;;;;;5113000;28;20649;-47
2021/04/22 01:28:19;;;;;;;1999.90;999.90;;;16.10;95.60;;;;;;5113083;28;20622;-47
2021/04/22 01:30:48;;;;;;;1999.90;999.90;;;16.10;95.60;;;;;;5112966;28;20163;-49
2021/04/22 01:33:19;;;;;;;1999.90;999.90;;;16.00;95.60;;;;;;5113026;28;20685;-47
2021/04/22 01:35:51;;;;;;;1999.90;999.90;;;16.00;95.60;;;;;;5113020;28;20160;-47
2021/04/22 01:38:19;;;;;;;1999.90;999.90;;;16.00;95.90;;;;;;5112991;28;20155;-47
2021/04/22 01:40:46;;;;;;;1999.90;999.90;;;16.00;95.80;;;;;;5112886;28;20645;-47
2021/04/22 01:43:13;;;;;;;1999.90;999.90;;;16.00;95.90;;;;;;5112810;28;20673;-49
2021/04/22 01:45:40;;;;;;;1999.90;999.90;;;16.00;95.90;;;;;;5113026;28;20197;-50
2021/04/22 01:48:07;;;;;;;1999.90;999.90;;;16.00;95.80;;;;;;5112932;28;20175;-46
2021/04/22 01:50:36;;;;;;;1999.90;999.90;;;15.90;95.90;;;;;;5112934;28;20174;-46
2021/04/22 01:53:05;;;;;;;1999.90;999.90;;;15.80;96.00;;;;;;5112971;28;20175;-48
2021/04/22 01:55:41;;;;;;;1999.90;999.90;;;15.80;96.20;;;;;;5112762;28;20163;-47
2021/04/22 01:58:10;;;;;;;1999.90;999.90;;;15.80;96.30;;;;;;5116191;28;20162;-48
2021/04/22 02:00:43;;;;;;;1999.90;999.90;;;15.80;96.40;;;;;;5116633;28;20163;-48
2021/04/22 02:03:10;;;;;;;1999.90;999.90;;;15.80;96.30;;;;;;5116353;28;20273;-48
2021/04/22 02:05:38;;;;;;;1999.90;999.90;;;15.80;96.30;;;;;;5116494;28;20701;-47
2021/04/22 02:08:07;;;;;;;1999.90;999.90;;;15.90;96.30;;;;;;5116619;27;20533;-46
2021/04/22 02:10:34;;;;;;;1999.90;999.90;;;15.80;96.20;;;;;;5116304;28;20175;-46
2021/04/22 02:13:01;;;;;;;1999.90;999.90;;;15.90;96.40;;;;;;5116305;27;20167;-47
2021/04/22 02:15:29;;;;;;;1999.90;999.90;;;15.80;96.30;;;;;;5116060;28;20221;-47
2021/04/22 02:17:57;;;;;;;1999.90;999.90;;;15.90;96.20;;;;;;5116142;28;20163;-47
2021/04/22 02:20:25;;;;;;;1999.90;999.90;;;15.90;96.10;;;;;;5115818;28;20230;-47
2021/04/22 02:22:52;;;;;;;1999.90;999.90;;;15.90;96.00;;;;;;5115916;28;20637;-48
2021/04/22 02:25:25;;;;;;;1999.90;999.90;;;15.90;96.00;;;;;;5116266;28;20577;-46
2021/04/22 02:27:55;;;;;;;1999.90;999.90;;;15.90;96.10;;;;;;5115822;28;20285;-49
2021/04/22 02:30:34;;;;;;;1999.90;999.90;;;15.90;96.20;;;;;;5115930;28;20163;-47
2021/04/22 02:33:02;;;;;;;1999.90;999.90;;;15.80;96.10;;;;;;5115849;28;20159;-47
2021/04/22 02:35:32;;;;;;;1999.90;999.90;;;15.90;96.20;;;;;;5115687;28;20175;-48
2021/04/22 02:38:00;;;;;;;1999.90;999.90;;;15.80;96.10;;;;;;5115716;28;20159;-48
2021/04/22 02:40:29;;;;;;;1999.90;999.90;;;15.80;96.40;;;;;;5115704;28;20178;-49
2021/04/22 02:42:57;;;;;;;1999.90;999.90;;;15.90;96.20;;;;;;5115529;28;20202;-49
2021/04/22 02:45:28;;;;;;;1999.90;999.90;;;15.80;96.20;;;;;;5115548;28;20199;-51
2021/04/22 02:47:56;;;;;;;1999.90;999.90;;;15.70;96.20;;;;;;5115529;28;20167;-47
2021/04/22 02:50:26;;;;;;;1999.90;999.90;;;15.80;96.50;;;;;;5115505;28;20194;-47
2021/04/22 02:52:53;;;;;;;1999.90;999.90;;;15.80;96.50;;;;;;5115486;28;20225;-48
2021/04/22 02:55:20;;;;;;;1999.90;999.90;;;15.80;96.50;;;;;;5115537;28;20626;-51
2021/04/22 02:57:47;;;;;;;1999.90;999.90;;;15.80;96.40;;;;;;5115423;28;20193;-48
2021/04/22 03:00:20;;;;;;;1999.90;999.90;;;15.70;96.30;;;;;;5115417;28;20275;-47
2021/04/22 03:02:47;;;;;;;1999.90;999.90;;;15.60;96.50;;;;;;5115105;28;20194;-47
2021/04/22 03:05:14;;;;;;;1999.90;999.90;;;15.70;96.50;;;;;;5115147;28;20200;-48
2021/04/22 03:07:41;;;;;;;1999.90;999.90;;;15.60;96.70;;;;;;5114633;28;20700;-48
2021/04/22 03:10:11;;;;;;;1999.90;999.90;;;15.60;96.90;;;;;;5114679;28;20174;-47
2021/04/22 03:12:38;;;;;;;1999.90;999.90;;;15.70;96.70;;;;;;5114971;27;20171;-52
2021/04/22 03:15:06;;;;;;;1999.90;999.90;;;15.70;96.40;;;;;;5114992;28;20171;-52
2021/04/22 03:17:34;;;;;;;1999.90;999.90;;;15.60;96.70;;;;;;5114956;28;20168;-51
2021/04/22 03:20:01;;;;;;;1999.90;999.90;;;15.80;96.70;;;;;;5114706;27;20319;-49
2021/04/22 03:22:28;;;;;;;1999.90;999.90;;;15.70;96.60;;;;;;5114744;28;20206;-48
2021/04/22 03:24:54;;;;;;;1999.90;999.90;;;15.70;96.50;;;;;;5114818;28;20174;-50
2021/04/22 03:27:21;;;;;;;1999.90;999.90;;;15.70;96.40;;;;;;5114866;28;20263;-50
2021/04/22 03:29:48;;;;;;;1999.90;999.90;;;15.60;96.30;;;;;;5114682;28;20265;-50
2021/04/22 03:32:15;;;;;;;1999.90;999.90;;;15.60;96.30;;;;;;5114828;28;20305;-46
2021/04/22 03:34:42;;;;;;;1999.90;999.90;;;15.60;96.30;;;;;;5114747;28;20174;-50
2021/04/22 03:37:08;;;;;;;1999.90;999.90;;;15.50;96.50;;;;;;5114516;28;20163;-48
2021/04/22 03:39:35;;;;;;;1999.90;999.90;;;15.60;96.50;;;;;;5114479;28;20199;-50
2021/04/22 03:42:02;;;;;;;1999.90;999.90;;;15.50;96.50;;;;;;5114334;28;20622;-47
2021/04/22 03:44:29;;;;;;;1999.90;999.90;;;15.50;96.50;;;;;;5114366;28;20220;-47
2021/04/22 03:46:56;;;;;;;1999.90;999.90;;;15.50;96.50;;;;;;5114274;28;20166;-49
2021/04/22 03:49:23;;;;;;;1999.90;999.90;;;15.50;96.50;;;;;;5114307;28;20224;-47
2021/04/22 03:51:49;;;;;;;1999.90;999.90;;;15.40;96.70;;;;;;5114396;28;20530;-47
2021/04/22 03:54:16;;;;;;;1999.90;999.90;;;15.50;96.80;;;;;;5114325;28;20575;-49
2021/04/22 03:56:44;;;;;;;1999.90;999.90;;;15.40;96.60;;;;;;5114535;28;20163;-49
2021/04/22 03:59:11;;;;;;;1999.90;999.90;;;15.40;96.60;;;;;;5114204;27;20171;-47
2021/04/22 04:01:38;;;;;;;1999.90;999.90;;;15.30;96.70;;;;;;5114119;28;20205;-49
2021/04/22 04:04:05;;;;;;;1999.90;999.90;;;15.20;96.90;;;;;;5113964;28;20203;-49
2021/04/22 04:06:34;;;;;;;1999.90;999.90;;;15.30;97.00;;;;;;5114008;28;20167;-47
2021/04/22 04:09:01;;;;;;;1999.90;999.90;;;15.30;97.00;;;;;;5114189;28;20698;-48
2021/04/22 04:11:28;;;;;;;1999.90;999.90;;;15.30;97.20;;;;;;5113866;28;20167;-53
2021/04/22 04:13:54;;;;;;;1999.90;999.90;;;15.30;97.20;;;;;;5112675;28;20170;-49
2021/04/22 04:16:21;;;;;;;1999.90;999.90;;;15.30;97.30;;;;;;5112630;28;20182;-48
2021/04/22 04:18:48;;;;;;;1999.90;999.90;;;15.30;97.70;;;;;;5113887;28;20163;-48
2021/04/22 04:21:15;;;;;;;1999.90;999.90;;;15.20;97.60;;;;;;5113463;28;20234;-48
2021/04/22 04:23:42;;;;;;;1999.90;999.90;;;15.20;97.60;;;;;;5113571;28;20570;-47
2021/04/22 04:26:09;;;;;;;1999.90;999.90;;;15.20;97.60;;;;;;5113781;28;20182;-47
2021/04/22 04:28:36;;;;;;;1999.90;999.90;;;15.20;97.50;;;;;;5113609;28;20648;-49
2021/04/22 04:31:02;;;;;;;1999.90;999.90;;;15.30;97.60;;;;;;5113640;28;20167;-49
2021/04/22 04:33:29;;;;;;;1999.90;999.90;;;15.30;97.60;;;;;;5112312;28;20637;-48
2021/04/22 04:35:56;;;;;;;1999.90;999.90;;;15.30;97.60;;;;;;5113523;28;20177;-52
2021/04/22 04:38:23;;;;;;;1999.90;999.90;;;15.30;97.60;;;;;;5113389;28;20190;-50
2021/04/22 04:40:50;;;;;;;1999.90;999.90;;;15.20;97.50;;;;;;5113570;28;20163;-47
2021/04/22 04:43:17;;;;;;;1999.90;999.90;;;15.30;97.80;;;;;;5112912;28;20199;-48
2021/04/22 04:45:43;;;;;;;1999.90;999.90;;;15.30;97.70;;;;;;5112868;28;20220;-49
2021/04/22 04:48:10;;;;;;;1999.90;999.90;;;15.30;97.40;;;;;;5112711;28;20171;-47
2021/04/22 04:50:37;;;;;;;1999.90;999.90;;;15.40;97.50;;;;;;5112866;28;20261;-48
2021/04/22 04:53:04;;;;;;;1999.90;999.90;;;15.30;97.10;;;;;;5112707;28;20189;-50
2021/04/22 04:55:31;;;;;;;1999.90;999.90;;;15.20;97.20;;;;;;5112705;28;20235;-48
2021/04/22 04:57:58;;;;;;;1999.90;999.90;;;15.10;97.40;;;;;;5111237;28;20175;-50
2021/04/22 05:00:25;;;;;;;1999.90;999.90;;;15.20;97.40;;;;;;5112946;28;20171;-49
2021/04/22 05:02:52;;;;;;;1999.90;999.90;;;15.20;97.30;;;;;;5112490;28;20210;-48
2021/04/22 05:05:19;;;;;;;1999.90;999.90;;;15.10;97.20;;;;;;5112770;28;20190;-48
2021/04/22 05:07:46;;;;;;;1999.90;999.90;;;15.10;97.40;;;;;;5112618;28;20167;-46
2021/04/22 05:10:14;;;;;;;1999.90;999.90;;;15.20;97.50;;;;;;5112518;28;20652;-48
2021/04/22 05:12:43;;;;;;;1999.90;999.90;;;15.20;97.60;;;;;;5112718;28;20183;-51
2021/04/22 05:15:10;;;;;;;1999.90;999.90;;;15.10;97.50;;;;;;5112775;28;20626;-51
2021/04/22 05:17:37;;;;;;;1999.90;999.90;;;15.00;97.80;;;;;;5112424;28;20216;-50
2021/04/22 05:20:08;;;;;;;1999.90;999.90;;;15.10;97.90;;;;;;5112150;28;20212;-50
2021/04/22 05:22:35;;;;;;;1999.90;999.90;;;15.20;97.70;;;;;;5112266;28;20560;-50
2021/04/22 05:25:03;;;;;;;1999.90;999.90;;;15.10;97.50;;;;;;5112205;28;20168;-48
2021/04/22 05:27:30;;;;;;;1999.90;999.90;;;15.10;97.50;;;;;;5112214;28;20176;-49
2021/04/22 05:29:57;;;;;;;1999.90;999.90;;;15.10;97.60;;;;;;5112152;28;20228;-47
2021/04/22 05:32:24;;;;;;;1999.90;999.90;;;15.10;97.60;;;;;;5114632;28;20167;-49
2021/04/22 05:34:50;;;;;;;1999.90;999.90;;;15.00;97.60;;;;;;5116097;28;20205;-52
2021/04/22 05:37:19;;;;;;;1999.90;999.90;;;15.10;97.80;;;;;;5116122;28;20247;-50
2021/04/22 05:39:45;;;;;;;1999.90;999.90;;;15.10;97.80;;;;;;5115900;27;20176;-48
2021/04/22 05:42:12;;;;;;;1999.90;999.90;;;15.10;97.90;;;;;;5115821;28;20274;-50
2021/04/22 05:44:41;;;;;;;1999.90;999.90;;;15.00;98.20;;;;;;5116008;28;20171;-53
2021/04/22 05:47:09;;;;;;;1999.90;999.90;;;15.00;98.50;;;;;;5115879;28;20260;-46
2021/04/22 05:49:35;;;;;;;1999.90;999.90;;;15.10;98.50;;;;;;5115714;28;20163;-49
2021/04/22 05:52:02;;;;;;;1999.90;999.90;;;15.10;98.40;;;;;;5115350;28;20607;-49
2021/04/22 05:54:29;;;;;;;1999.90;999.90;;;15.20;98.20;;;;;;5115244;28;20168;-51
2021/04/22 05:56:56;;;;;;;1999.90;999.90;;;15.10;98.20;;;;;;5115153;28;20630;-49
2021/04/22 05:59:23;;;;;;;1999.90;999.90;;;15.20;98.20;;;;;;5064132;28;20173;-44
2021/04/22 06:01:50;;;;;;;1999.90;999.90;;;15.30;96.00;;;;;;5030924;28;20177;-44
2021/04/22 06:04:16;;;;;;;1999.90;999.90;;;15.60;96.90;;;;;;5031170;28;20250;-45
2021/04/22 06:06:43;;;;;;;1999.90;999.90;;;15.90;96.00;;;;;;5030882;28;20169;-50
2021/04/22 06:09:10;;;;;;;1999.90;999.90;;;16.10;95.90;;;;;;5031772;28;20558;-50
2021/04/22 06:11:37;;;;;;;1999.90;999.90;;;16.40;95.40;;;;;;5027527;28;20174;-50
2021/04/22 06:14:04;;;;;;;1999.90;999.90;;;16.60;94.70;;;;;;5033019;28;20198;-53
2021/04/22 06:16:30;;;;;;;1999.90;999.90;;;16.70;94.60;;;;;;5040738;28;20166;-43
2021/04/22 06:18:57;;;;;;;1999.90;999.90;;;16.80;94.30;;;;;;5036496;28;20169;-52
2021/04/22 06:21:24;;;;;;;1999.90;999.90;;;17.00;94.60;;;;;;5032519;28;20214;-44
2021/04/22 06:23:52;;;;;;;1999.90;999.90;;;17.20;94.10;;;;;;5031237;28;20206;-44
2021/04/22 06:26:20;;;;;;;1999.90;999.90;;;17.40;93.60;;;;;;5029428;28;20220;-47
2021/04/22 06:28:50;;;;;;;1999.90;999.90;;;17.50;93.30;;;;;;5030371;28;20216;-48
2021/04/22 06:31:17;;;;;;;1999.90;999.90;;;17.70;93.00;;;;;;5030962;28;20169;-59
2021/04/22 06:33:44;;;;;;;1999.90;999.90;;;17.90;93.00;;;;;;5029405;28;20166;-60
2021/04/22 06:36:10;;;;;;;1999.90;999.90;;;18.00;93.00;;;;;;5030207;28;20169;-52
2021/04/22 06:38:37;;;;;;;1999.90;999.90;;;18.30;92.50;;;;;;5029975;28;20230;-53
2021/04/22 06:41:04;;;;;;;1999.90;999.90;;;18.40;92.30;;;;;;5029607;28;20173;-55
2021/04/22 06:43:31;;;;;;;1999.90;999.90;;;18.60;91.50;;;;;;5029839;28;20232;-54
2021/04/22 06:45:57;;;;;;;1999.90;999.90;;;18.70;91.60;;;;;;5030452;28;20170;-52
2021/04/22 06:48:24;;;;;;;1999.90;999.90;;;18.90;91.40;;;;;;5029330;28;20699;-52
2021/04/22 06:50:51;;;;;;;1999.90;999.90;;;19.10;90.50;;;;;;5029534;28;20414;-51
2021/04/22 06:53:18;;;;;;;1999.90;999.90;;;19.20;90.30;;;;;;5029723;28;20174;-54
2021/04/22 06:55:44;;;;;;;1999.90;999.90;;;19.40;89.80;;;;;;5029796;28;20170;-55
2021/04/22 06:58:11;;;;;;;1999.90;999.90;;;19.50;89.60;;;;;;5030119;28;20182;-49
2021/04/22 07:00:40;;;;;;;1999.90;999.90;;;19.60;88.20;;;;;;5030491;28;20562;-52
2021/04/22 07:03:08;;;;;;;1999.90;999.90;;;19.70;88.70;;;;;;5029566;28;20210;-46
2021/04/22 07:05:36;;;;;;;1999.90;999.90;;;19.80;87.30;;;;;;5029794;28;20195;-56
2021/04/22 07:08:03;;;;;;;1999.90;999.90;;;19.90;86.80;;;;;;5026803;28;20170;-54
2021/04/22 07:10:30;;;;;;;1999.90;999.90;;;20.00;86.20;;;;;;5028936;28;20181;-52
2021/04/22 07:12:57;;;;;;;1999.90;999.90;;;20.10;87.20;;;;;;5029603;28;20205;-47
2021/04/22 07:15:25;;;;;;;1999.90;999.90;;;20.30;86.30;;;;;;5032016;28;20181;-52
2021/04/22 07:17:52;;;;;;;1999.90;999.90;;;20.50;84.50;;;;;;5036511;28;20539;-48
2021/04/22 07:20:23;;;;;;;1999.90;999.90;;;20.70;84.10;;;;;;5037123;28;20236;-56
2021/04/22 07:22:51;;;;;;;1999.90;999.90;;;21.00;82.80;;;;;;5033515;28;20194;-50
2021/04/22 07:25:18;;;;;;;1999.90;999.90;;;21.20;82.10;;;;;;5045509;28;20166;-56
2021/04/22 07:27:45;;;;;;;1999.90;999.90;;;21.40;80.90;;;;;;5029857;28;20564;-55
2021/04/22 07:30:13;;;;;;;1999.90;999.90;;;21.60;80.70;;;;;;5028508;28;20198;-53
2021/04/22 07:32:40;;;;;;;1999.90;999.90;;;21.70;79.50;;;;;;5018975;28;20203;-42
2021/04/22 07:35:09;;;;;;;1999.90;999.90;;;21.80;78.40;;;;;;5029399;28;20188;-51
2021/04/22 07:37:37;;;;;;;1999.90;999.90;;;22.00;77.80;;;;;;5028361;28;20171;-52
2021/04/22 07:40:06;;;;;;;1999.90;999.90;;;22.10;77.70;;;;;;5029137;28;20177;-61
2021/04/22 07:42:33;;;;;;;1999.90;999.90;;;22.30;77.30;;;;;;5029289;28;20204;-58
2021/04/22 07:45:01;;;;;;;1999.90;999.90;;;22.50;76.00;;;;;;5038778;28;20652;-47
2021/04/22 07:47:27;;;;;;;1999.90;999.90;;;22.80;75.00;;;;;;5038063;28;20174;-46
2021/04/22 07:49:54;;;;;;;1999.90;999.90;;;23.00;75.00;;;;;;5031094;28;20195;-53
2021/04/22 07:52:21;;;;;;;1999.90;999.90;;;23.20;73.20;;;;;;5024934;28;20547;-45
2021/04/22 07:54:48;;;;;;;1999.90;999.90;;;23.50;72.20;;;;;;5020174;28;20177;-58
2021/04/22 07:57:15;;;;;;;1999.90;999.90;;;23.80;70.70;;;;;;5038625;28;20178;-46
2021/04/22 07:59:42;;;;;;;1999.90;999.90;;;24.00;68.90;;;;;;5037021;28;20172;-57
2021/04/22 08:02:11;;;;;;;1999.90;999.90;;;24.30;67.90;;;;;;5039234;28;20173;-54
2021/04/22 08:04:38;;;;;;;1999.90;999.90;;;24.60;66.20;;;;;;5035927;28;20182;-57
2021/04/22 08:07:05;;;;;;;1999.90;999.90;;;25.00;63.90;;;;;;5057269;27;20170;-58
2021/04/22 08:09:33;;;;;;;1999.90;999.90;;;25.50;62.30;;;;;;5028348;28;20181;-64
2021/04/22 08:12:05;;;;;;;1999.90;999.90;;;25.80;61.00;;;;;;5029107;28;20694;-63
2021/04/22 08:14:33;;;;;;;1999.90;999.90;;;26.10;60.40;;;;;;5027602;28;20185;-48
2021/04/22 08:17:00;;;;;;;1999.90;999.90;;;26.40;58.80;;;;;;5028568;28;20166;-53
2021/04/22 08:19:27;;;;;;;1999.90;999.90;;;26.80;57.80;;;;;;5027518;28;20182;-61
2021/04/22 08:21:54;;;;;;;1999.90;999.90;;;27.10;56.90;;;;;;5028707;28;20236;-55
2021/04/22 08:24:21;;;;;;;1999.90;999.90;;;27.40;56.00;;;;;;5028865;28;20281;-44
2021/04/22 08:26:48;;;;;;;1999.90;999.90;;;27.60;55.20;;;;;;5028085;28;20249;-47
2021/04/22 08:29:15;;;;;;;1999.90;999.90;;;28.00;54.00;;;;;;5028647;28;20205;-46
2021/04/22 08:31:42;;;;;;;1999.90;999.90;;;28.30;53.00;;;;;;5028701;28;20170;-57
2021/04/22 08:34:09;;;;;;;1999.90;999.90;;;28.60;52.20;;;;;;5027598;28;20486;-47
2021/04/22 08:36:36;;;;;;;1999.90;999.90;;;28.70;51.40;;;;;;5028906;28;20257;-60
2021/04/22 08:39:09;;;;;;;1999.90;999.90;;;29.20;50.90;;;;;;5028290;28;20191;-50
2021/04/22 08:41:38;;;;;;;1999.90;999.90;;;29.50;48.90;;;;;;5027795;28;20253;-60
2021/04/22 08:44:06;;;;;;;1999.90;999.90;;;29.70;48.20;;;;;;5044068;27;20236;-59
2021/04/22 08:46:36;;;;;;;1999.90;999.90;;;30.00;46.70;;;;;;5028817;28;20162;-62
2021/04/22 08:49:04;;;;;;;1999.90;999.90;;;30.00;47.20;;;;;;5027575;28;20177;-54
2021/04/22 08:51:31;;;;;;;1999.90;999.90;;;30.10;46.40;;;;;;5028882;28;20693;-52
2021/04/22 08:54:00;;;;;;;1999.90;999.90;;;30.30;45.30;;;;;;5029077;28;20170;-45
2021/04/22 08:56:27;;;;;;;1999.90;999.90;;;30.40;45.60;;;;;;5066325;27;20171;-59
2021/04/22 08:58:53;;;;;;;1999.90;999.90;;;30.60;44.20;;;;;;5025939;28;20174;-63
2021/04/22 09:01:22;;;;;;;1999.90;999.90;;;31.00;44.70;;;;;;5016111;28;20167;-63
2021/04/22 09:03:49;;;;;;;1999.90;999.90;;;31.50;42.10;;;;;;5007908;28;20202;-48
2021/04/22 09:06:16;;;;;;;1999.90;999.90;;;31.70;41.70;;;;;;5041240;27;20171;-43
2021/04/22 09:08:51;;;;;;;1999.90;999.90;;;31.70;42.60;;;;;;5136104;27;20170;-53
2021/04/22 09:11:24;;;;;;;1999.90;999.90;;;32.10;41.70;;;;;;5131079;27;20214;-52
2021/04/22 09:13:52;;;;;;;1999.90;999.90;;;32.20;40.40;;;;;;5135026;27;20166;-54
2021/04/22 09:16:28;;;;;;;1999.90;999.90;;;32.10;39.80;;;;;;5031204;28;20174;-51
2021/04/22 09:19:07;;;;;;;1999.90;999.90;;;32.20;39.60;;;;;;5029837;28;20185;-51
2021/04/22 09:21:38;;;;;;;1999.90;999.90;;;32.30;39.00;;;;;;5030868;28;20671;-50
2021/04/22 09:24:11;;;;;;;1999.90;999.90;;;32.50;38.50;;;;;;5030065;28;20679;-54
2021/04/22 09:26:52;;;;;;;1999.90;999.90;;;32.80;37.40;;;;;;5031573;28;20572;-52
2021/04/22 09:29:53;;;;;;;1999.90;999.90;;;33.00;37.70;;;;;;5031766;28;20213;-50
2021/04/22 09:32:30;;;;;;;1999.90;999.90;;;33.00;37.00;;;;;;5031942;28;20183;-52
2021/04/22 09:35:12;;;;;;;1999.90;999.90;;;33.00;36.90;;;;;;5011969;28;20240;-49
2021/04/22 09:37:51;;;;;;;1999.90;999.90;;;32.90;36.30;;;;;;5020912;28;20198;-48
2021/04/22 09:40:24;;;;;;;1999.90;999.90;;;32.30;37.50;;;;;;5030940;28;20208;-48
2021/04/22 09:42:53;;;;;;;1999.90;999.90;;;32.00;38.20;;;;;;5029861;28;20200;-49
2021/04/22 09:45:23;;;;;;;1999.90;999.90;;;32.10;37.80;;;;;;5030467;28;20256;-49
2021/04/22 09:47:50;;;;;;;1999.90;999.90;;;32.10;37.90;;;;;;5031013;28;20496;-48
2021/04/22 09:50:21;;;;;;;1999.90;999.90;;;32.40;37.30;;;;;;5031205;28;20293;-53
2021/04/22 09:52:52;;;;;;;1999.90;999.90;;;32.70;36.60;;;;;;5030547;28;20198;-56
2021/04/22 09:55:22;;;;;;;1999.90;999.90;;;32.60;36.60;;;;;;5020884;28;20488;-47
2021/04/22 09:57:49;;;;;;;1999.90;999.90;;;32.70;36.60;;;;;;5028122;28;20196;-47
2021/04/22 10:00:28;;;;;;;1999.90;999.90;;;32.90;36.40;;;;;;5030665;28;20205;-49
2021/04/22 10:02:56;;;;;;;1999.90;999.90;;;32.80;36.60;;;;;;5031180;28;20198;-45
2021/04/22 10:05:32;;;;;;;1999.90;999.90;;;33.00;36.10;;;;;;5031406;28;20193;-46
2021/04/22 10:08:17;;;;;;;1999.90;999.90;;;32.90;36.20;;;;;;5030622;28;20169;-44
2021/04/22 10:11:07;;;;;;;1999.90;999.90;;;33.20;36.10;;;;;;5015478;28;20205;-47
2021/04/22 10:13:45;;;;;;;1999.90;999.90;;;33.60;34.90;;;;;;5030325;28;20162;-42
2021/04/22 10:16:12;;;;;;;1999.90;999.90;;;33.40;35.10;;;;;;5030480;28;20181;-43
2021/04/22 10:18:42;;;;;;;1999.90;999.90;;;33.50;34.90;;;;;;5030194;28;20181;-45
2021/04/22 10:21:11;;;;;;;1999.90;999.90;;;33.70;35.10;;;;;;5028684;28;20748;-48
2021/04/22 10:23:38;;;;;;;1999.90;999.90;;;33.70;34.50;;;;;;5021775;28;20205;-42
2021/04/22 10:26:16;;;;;;;1999.90;999.90;;;33.90;34.30;;;;;;5029643;28;20178;-45
2021/04/22 10:28:42;;;;;;;1999.90;999.90;;;33.80;34.00;;;;;;5030110;28;20158;-43
2021/04/22 10:31:09;;;;;;;1999.90;999.90;;;33.80;34.40;;;;;;5031159;28;20197;-48
2021/04/22 10:33:36;;;;;;;1999.90;999.90;;;34.10;34.20;;;;;;5030795;28;20217;-39
2021/04/22 10:36:03;;;;;;;1999.90;999.90;;;34.20;33.20;;;;;;5030107;28;20659;-50
2021/04/22 10:38:31;;;;;;;1999.90;999.90;;;34.00;33.00;;;;;;5030491;28;20170;-49
2021/04/22 10:40:58;;;;;;;1999.90;999.90;;;34.00;33.20;;;;;;5030169;28;20174;-49
2021/04/22 10:43:29;;;;;;;1999.90;999.90;;;33.80;33.10;;;;;;5027271;28;20201;-49
2021/04/22 10:45:57;;;;;;;1999.90;999.90;;;32.80;34.30;;;;;;5030297;28;20621;-48
2021/04/22 10:48:24;;;;;;;1999.90;999.90;;;33.00;34.10;;;;;;5030113;28;20174;-49
2021/04/22 10:50:53;;;;;;;1999.90;999.90;;;33.40;33.90;;;;;;5029219;28;20221;-46
2021/04/22 10:53:23;;;;;;;1999.90;999.90;;;33.60;33.80;;;;;;5030196;28;20174;-45
2021/04/22 10:55:53;;;;;;;1999.90;999.90;;;33.80;33.80;;;;;;5030274;28;20193;-47
2021/04/22 10:58:21;;;;;;;1999.90;999.90;;;33.80;33.20;;;;;;5029057;28;20162;-44
2021/04/22 11:00:59;;;;;;;1999.90;999.90;;;33.80;33.10;;;;;;5048482;27;20254;-47
2021/04/22 11:03:42;;;;;;;1999.90;999.90;;;34.10;32.40;;;;;;5026865;28;20201;-54
2021/04/22 11:06:17;;;;;;;1999.90;999.90;;;34.20;31.90;;;;;;5029522;28;20154;-45
2021/04/22 11:08:49;;;;;;;1999.90;999.90;;;34.30;31.40;;;;;;5030305;28;20158;-46
2021/04/22 11:11:20;;;;;;;1999.90;999.90;;;34.40;31.60;;;;;;5028236;28;20318;-46
2021/04/22 11:13:49;;;;;;;1999.90;999.90;;;34.30;31.80;;;;;;5029116;28;20201;-53
2021/04/22 11:16:28;;;;;;;1999.90;999.90;;;34.30;31.60;;;;;;5028734;28;20174;-48
2021/04/22 11:18:55;;;;;;;1999.90;999.90;;;34.20;31.20;;;;;;5028579;28;20234;-48
2021/04/22 11:21:31;;;;;;;1999.90;999.90;;;34.30;31.40;;;;;;5029835;28;20304;-50
2021/04/22 11:24:00;;;;;;;1999.90;999.90;;;34.00;30.40;;;;;;5029610;28;20245;-45
2021/04/22 11:26:28;;;;;;;1999.90;999.90;;;33.80;31.30;;;;;;5029081;28;20166;-54
2021/04/22 11:28:57;;;;;;;1999.90;999.90;;;33.90;31.50;;;;;;5028877;28;20260;-46
2021/04/22 11:31:26;;;;;;;1999.90;999.90;;;34.00;31.50;;;;;;5028272;28;20170;-51
2021/04/22 11:34:06;;;;;;;1999.90;999.90;;;34.20;31.20;;;;;;5028995;28;20169;-47
2021/04/22 11:36:33;;;;;;;1999.90;999.90;;;34.20;31.20;;;;;;5040927;28;20249;-47
2021/04/22 11:39:09;;;;;;;1999.90;999.90;;;34.20;30.90;;;;;;5036119;27;20178;-48
2021/04/22 11:41:36;;;;;;;1999.90;999.90;;;34.40;31.50;;;;;;5029102;28;20146;-40
2021/04/22 11:44:12;;;;;;;1999.90;999.90;;;34.60;31.10;;;;;;5029064;28;20231;-46
2021/04/22 11:46:45;;;;;;;1999.90;999.90;;;34.70;30.40;;;;;;5045241;27;20648;-44
2021/04/22 11:49:26;;;;;;;1999.90;999.90;;;34.60;30.60;;;;;;5029164;28;20526;-38
2021/04/22 11:51:54;;;;;;;1999.90;999.90;;;34.60;30.50;;;;;;5029646;28;20170;-46
2021/04/22 11:54:28;;;;;;;1999.90;999.90;;;34.60;30.40;;;;;;5028757;28;20182;-45
2021/04/22 11:57:04;;;;;;;1999.90;999.90;;;34.50;30.10;;;;;;5029303;28;20186;-50
2021/04/22 11:59:32;;;;;;;1999.90;999.90;;;34.60;29.90;;;;;;5029480;28;20284;-49
2021/04/22 12:02:09;;;;;;;1999.90;999.90;;;34.40;29.50;;;;;;5028934;28;20660;-48
2021/04/22 12:04:37;;;;;;;1999.90;999.90;;;34.30;30.00;;;;;;5029744;28;20245;-49
2021/04/22 12:07:20;;;;;;;1999.90;999.90;;;34.30;30.40;;;;;;5028928;28;20193;-48